createdAt,value
2018-08-12T00:00:18.165Z,7.40
2018-08-12T00:02:46.665Z,9.13
2018-08-12T00:05:15.183Z,7.07
2018-08-12T00:07:44.045Z,7.50
2018-08-12T00:10:12.996Z,7.50
2018-08-12T00:12:42.134Z,6.63
2018-08-12T00:15:12.936Z,7.50
2018-08-12T00:17:41.681Z,6.53
2018-08-12T00:20:14.996Z,7.13
2018-08-12T00:22:43.475Z,8.13
2018-08-12T00:25:14.322Z,7.20
2018-08-12T00:27:42.813Z,7.50
2018-08-12T00:30:12.741Z,7.37
2018-08-12T00:32:41.302Z,7.77
2018-08-12T00:35:12.111Z,7.57
2018-08-12T00:37:41.373Z,7.10
2018-08-12T00:40:11.533Z,7.43
2018-08-12T00:42:40.119Z,6.77
2018-08-12T00:45:11.190Z,7.03
2018-08-12T00:47:39.751Z,7.53
2018-08-12T00:50:09.633Z,6.80
2018-08-12T00:52:38.253Z,7.13
2018-08-12T00:55:08.856Z,7.07
2018-08-12T00:57:37.453Z,6.43
2018-08-12T01:00:11.873Z,6.20
2018-08-12T01:02:40.538Z,6.60
2018-08-12T01:05:13.033Z,6.80
2018-08-12T01:07:41.960Z,6.53
2018-08-12T01:10:12.043Z,6.63
2018-08-12T01:12:40.594Z,6.63
2018-08-12T01:15:12.589Z,6.80
2018-08-12T01:17:41.176Z,6.83
2018-08-12T01:20:11.457Z,6.30
2018-08-12T01:22:40.672Z,6.10
2018-08-12T01:25:11.106Z,6.13
2018-08-12T01:27:39.701Z,6.97
2018-08-12T01:30:13.826Z,6.27
2018-08-12T01:32:42.904Z,7.00
2018-08-12T01:35:12.311Z,6.13
2018-08-12T01:37:41.573Z,6.83
2018-08-12T01:40:12.950Z,5.50
2018-08-12T01:42:42.086Z,6.20
2018-08-12T01:45:12.600Z,5.77
2018-08-12T01:47:41.417Z,6.60
2018-08-12T01:50:11.695Z,6.47
2018-08-12T01:52:40.731Z,6.30
2018-08-12T01:55:10.390Z,6.40
2018-08-12T01:57:38.921Z,6.23
2018-08-12T02:00:09.268Z,6.40
2018-08-12T02:02:37.831Z,5.93
2018-08-12T02:05:07.382Z,6.17
2018-08-12T02:07:35.856Z,6.30
2018-08-12T02:10:05.715Z,5.37
2018-08-12T02:12:34.253Z,5.93
2018-08-12T02:15:02.747Z,6.20
2018-08-12T02:17:31.305Z,6.00
2018-08-12T02:19:59.829Z,6.07
2018-08-12T02:22:28.420Z,6.30
2018-08-12T02:24:56.995Z,6.13
2018-08-12T02:27:25.598Z,5.80
2018-08-12T02:29:54.253Z,5.97
2018-08-12T02:32:23.059Z,6.10
2018-08-12T02:34:52.602Z,6.20
2018-08-12T02:37:21.495Z,5.83
2018-08-12T02:39:50.363Z,5.33
2018-08-12T02:42:18.923Z,5.73
2018-08-12T02:44:47.555Z,5.53
2018-08-12T02:47:16.046Z,5.70
2018-08-12T02:49:44.600Z,5.00
2018-08-12T02:52:13.175Z,5.40
2018-08-12T02:54:41.662Z,5.53
2018-08-12T02:57:10.298Z,5.97
2018-08-12T02:59:38.984Z,5.60
2018-08-12T03:02:07.623Z,5.70
2018-08-12T03:04:37.129Z,5.37
2018-08-12T03:07:07.453Z,5.80
2018-08-12T03:09:36.254Z,5.97
2018-08-12T03:12:04.776Z,5.70
2018-08-12T03:14:33.210Z,5.60
2018-08-12T03:17:01.717Z,5.70
2018-08-12T03:19:30.510Z,5.93
2018-08-12T03:21:59.231Z,6.33
2018-08-12T03:24:27.783Z,5.33
2018-08-12T03:26:56.333Z,6.40
2018-08-12T03:29:24.763Z,7.23
2018-08-12T03:31:53.208Z,6.50
2018-08-12T03:34:21.717Z,7.53
2018-08-12T03:36:50.426Z,6.67
2018-08-12T03:39:19.970Z,6.60
2018-08-12T03:41:48.553Z,7.63
2018-08-12T03:44:17.157Z,8.03
2018-08-12T03:46:45.881Z,7.80
2018-08-12T03:49:14.509Z,7.50
2018-08-12T03:51:43.033Z,7.77
2018-08-12T03:54:11.678Z,8.67
2018-08-12T03:56:40.269Z,8.53
2018-08-12T03:59:08.748Z,8.23
2018-08-12T04:01:37.301Z,8.17
2018-08-12T04:04:05.964Z,8.30
2018-08-12T04:06:34.773Z,8.20
2018-08-12T04:09:03.547Z,8.07
2018-08-12T04:11:32.199Z,8.97
2018-08-12T04:14:01.025Z,8.53
2018-08-12T04:16:29.774Z,8.67
2018-08-12T04:18:58.478Z,8.53
2018-08-12T04:21:26.989Z,9.23
2018-08-12T04:23:55.707Z,9.73
2018-08-12T04:26:24.247Z,9.50
2018-08-12T04:28:52.860Z,9.40
2018-08-12T04:31:21.483Z,9.63
2018-08-12T04:33:50.019Z,10.07
2018-08-12T04:36:18.516Z,10.17
2018-08-12T04:38:47.058Z,10.30
2018-08-12T04:41:15.568Z,10.60
2018-08-12T04:43:44.089Z,10.60
2018-08-12T04:46:12.734Z,11.47
2018-08-12T04:48:41.965Z,10.67
2018-08-12T04:51:10.517Z,11.80
2018-08-12T04:53:39.037Z,11.40
2018-08-12T04:56:07.684Z,12.07
2018-08-12T04:58:36.343Z,11.47
2018-08-12T05:01:04.884Z,11.10
2018-08-12T05:03:33.443Z,12.53
2018-08-12T05:06:02.054Z,12.00
2018-08-12T05:08:31.301Z,12.40
2018-08-12T05:11:00.399Z,12.87
2018-08-12T05:13:29.180Z,12.70
2018-08-12T05:15:57.772Z,11.67
2018-08-12T05:18:26.292Z,13.03
2018-08-12T05:20:54.840Z,12.10
2018-08-12T05:23:23.370Z,12.73
2018-08-12T05:25:51.995Z,11.27
2018-08-12T05:28:20.581Z,11.33
2018-08-12T05:30:49.235Z,11.07
2018-08-12T05:33:17.800Z,11.80
2018-08-12T05:35:46.401Z,10.23
2018-08-12T05:38:15.011Z,10.37
2018-08-12T05:40:43.798Z,10.20
2018-08-12T05:43:12.374Z,10.17
2018-08-12T05:45:41.028Z,10.57
2018-08-12T05:48:16.581Z,9.73
2018-08-12T05:50:47.443Z,10.13
2018-08-12T05:53:16.258Z,11.43
2018-08-12T05:55:45.209Z,10.47
2018-08-12T05:58:14.784Z,11.00
2018-08-12T06:00:43.646Z,11.03
2018-08-12T06:03:12.404Z,9.20
2018-08-12T06:05:42.274Z,10.20
2018-08-12T06:08:11.821Z,10.03
2018-08-12T06:10:40.372Z,8.93
2018-08-12T06:13:11.161Z,9.30
2018-08-12T06:15:39.833Z,8.87
2018-08-12T06:18:08.577Z,8.40
2018-08-12T06:20:37.201Z,8.00
2018-08-12T06:23:05.862Z,8.77
2018-08-12T06:25:34.477Z,8.20
2018-08-12T06:28:03.228Z,7.67
2018-08-12T06:30:31.762Z,8.53
2018-08-12T06:33:00.418Z,7.67
2018-08-12T06:35:29.072Z,7.87
2018-08-12T06:37:57.723Z,8.10
2018-08-12T06:40:26.943Z,7.80
2018-08-12T06:42:56.180Z,8.20
2018-08-12T06:45:24.695Z,7.83
2018-08-12T06:47:53.285Z,8.03
2018-08-12T06:50:21.979Z,9.03
2018-08-12T06:52:50.614Z,9.20
2018-08-12T06:55:19.856Z,8.07
2018-08-12T06:57:49.259Z,8.73
2018-08-12T07:00:21.671Z,9.07
2018-08-12T07:02:51.305Z,9.13
2018-08-12T07:05:19.898Z,11.17
2018-08-12T07:07:48.474Z,9.73
2018-08-12T07:10:17.056Z,10.00
2018-08-12T07:12:45.707Z,10.47
2018-08-12T07:15:15.787Z,10.97
2018-08-12T07:17:45.162Z,10.40
2018-08-12T07:20:14.269Z,10.67
2018-08-12T07:22:43.115Z,9.50
2018-08-12T07:25:12.872Z,10.20
2018-08-12T07:27:42.307Z,10.43
2018-08-12T07:30:13.128Z,10.17
2018-08-12T07:32:41.706Z,10.80
2018-08-12T07:35:10.827Z,9.80
2018-08-12T07:37:39.612Z,10.40
2018-08-12T07:40:12.831Z,10.37
2018-08-12T07:42:41.337Z,10.47
2018-08-12T07:45:11.566Z,10.17
2018-08-12T07:47:40.318Z,9.40
2018-08-12T07:50:09.774Z,9.43
2018-08-12T07:52:39.546Z,8.33
2018-08-12T07:55:12.188Z,9.27
2018-08-12T07:57:41.396Z,9.23
2018-08-12T08:00:12.106Z,8.20
2018-08-12T08:02:40.752Z,8.73
2018-08-12T08:05:09.338Z,8.03
2018-08-12T08:07:38.443Z,8.20
2018-08-12T08:10:09.065Z,7.13
2018-08-12T08:12:38.632Z,5.93
2018-08-12T08:15:09.324Z,6.43
2018-08-12T08:17:39.044Z,5.73
2018-08-12T08:20:12.459Z,4.83
2018-08-12T08:22:42.070Z,4.20
2018-08-12T08:26:14.901Z,4.33
2018-08-12T08:28:43.669Z,3.60
2018-08-12T08:31:13.530Z,3.83
2018-08-12T08:33:42.393Z,3.70
2018-08-12T08:36:11.049Z,3.40
2018-08-12T08:38:39.774Z,3.20
2018-08-12T08:41:15.945Z,3.07
2018-08-12T08:43:46.845Z,2.57
2018-08-12T08:46:15.396Z,2.93
2018-08-12T08:48:44.829Z,2.87
2018-08-12T08:51:17.189Z,2.60
2018-08-12T08:54:03.000Z,2.50
2018-08-12T08:56:32.959Z,3.03
2018-08-12T08:59:05.345Z,2.67
2018-08-12T09:01:41.787Z,3.10
2018-08-12T09:04:20.280Z,2.97
2018-08-12T09:06:50.105Z,3.23
2018-08-12T09:09:20.248Z,3.30
2018-08-12T09:11:56.924Z,2.80
2018-08-12T09:14:28.221Z,3.30
2018-08-12T09:16:58.448Z,3.33
2018-08-12T09:19:27.656Z,2.87
2018-08-12T09:22:00.215Z,3.07
2018-08-12T09:24:29.663Z,3.00
2018-08-12T09:27:30.878Z,3.10
2018-08-12T09:30:00.780Z,3.07
2018-08-12T09:32:30.108Z,2.43
2018-08-12T09:35:01.489Z,3.10
2018-08-12T09:37:33.540Z,2.77
2018-08-12T09:40:04.670Z,2.33
2018-08-12T09:42:42.342Z,2.50
2018-08-12T09:45:13.591Z,2.47
2018-08-12T09:47:43.002Z,2.40
2018-08-12T09:50:13.708Z,2.33
2018-08-12T09:52:46.095Z,2.30
2018-08-12T09:55:18.580Z,2.33
2018-08-12T09:57:47.633Z,2.30
2018-08-12T10:00:23.050Z,2.40
2018-08-12T10:02:53.194Z,2.30
2018-08-12T10:05:21.748Z,2.30
2018-08-12T10:07:50.209Z,2.07
2018-08-12T10:10:18.885Z,2.30
2018-08-12T10:12:47.896Z,2.30
2018-08-12T10:15:16.981Z,1.87
2018-08-12T10:17:48.594Z,2.13
2018-08-12T10:20:17.756Z,2.40
2018-08-12T10:22:46.253Z,2.30
2018-08-12T10:25:14.767Z,2.27
2018-08-12T10:27:43.322Z,2.47
2018-08-12T10:30:14.277Z,1.97
2018-08-12T10:32:42.977Z,1.93
2018-08-12T10:35:12.923Z,2.03
2018-08-12T10:37:42.066Z,2.00
2018-08-12T10:40:19.134Z,2.15
2018-08-12T10:42:48.596Z,2.33
2018-08-12T10:45:17.285Z,2.43
2018-08-12T10:47:46.135Z,2.10
2018-08-12T10:50:16.635Z,2.30
2018-08-12T10:52:46.072Z,1.73
2018-08-12T10:55:16.041Z,1.43
2018-08-12T10:57:45.149Z,1.50
2018-08-12T11:00:16.292Z,1.67
2018-08-12T11:02:45.331Z,1.70
2018-08-12T11:05:14.791Z,1.50
2018-08-12T11:07:43.885Z,1.53
2018-08-12T11:10:12.916Z,1.30
2018-08-12T11:12:41.806Z,1.45
2018-08-12T11:15:10.666Z,1.45
2018-08-12T11:17:39.894Z,1.20
2018-08-12T11:20:09.226Z,1.42
2018-08-12T11:22:37.731Z,1.75
2018-08-12T11:25:07.517Z,1.50
2018-08-12T11:27:36.653Z,1.87
2018-08-12T11:30:09.745Z,1.72
2018-08-12T11:32:38.360Z,1.50
2018-08-12T11:35:08.605Z,1.47
2018-08-12T11:37:37.849Z,1.37
2018-08-12T11:40:09.137Z,1.47
2018-08-12T11:42:38.025Z,1.32
2018-08-12T11:45:09.905Z,1.42
2018-08-12T11:47:54.694Z,1.35
2018-08-12T11:50:23.911Z,1.22
2018-08-12T11:52:54.679Z,1.23
2018-08-12T11:55:24.411Z,1.25
2018-08-12T11:57:54.659Z,1.00
2018-08-12T12:00:23.708Z,1.17
2018-08-12T12:05:56.882Z,1.22
2018-08-12T12:08:28.666Z,1.05
2018-08-12T12:10:58.684Z,0.85
2018-08-12T12:13:28.826Z,1.22
2018-08-12T12:15:58.948Z,1.47
2018-08-12T12:18:29.558Z,1.55
2018-08-12T12:20:58.684Z,0.93
2018-08-12T12:23:28.492Z,1.00
2018-08-12T12:26:01.542Z,1.05
2018-08-12T12:28:31.877Z,1.32
2018-08-12T12:31:02.139Z,1.02
2018-08-12T12:33:31.412Z,1.22
2018-08-12T12:36:07.938Z,1.45
2018-08-12T12:38:38.947Z,1.20
2018-08-12T12:41:09.338Z,1.02
2018-08-12T12:43:38.310Z,0.82
2018-08-12T12:46:10.660Z,1.00
2018-08-12T12:48:41.788Z,0.80
2018-08-12T12:51:12.087Z,1.00
2018-08-12T12:53:44.563Z,1.05
2018-08-12T12:56:16.130Z,0.70
2018-08-12T13:02:08.834Z,0.70
2018-08-12T13:18:41.910Z,1.00
2018-08-12T13:55:50.235Z,0.90
2018-08-12T14:07:30.556Z,0.95
2018-08-12T14:13:25.943Z,0.95
2018-08-12T14:16:27.351Z,1.00
2018-08-12T14:34:57.851Z,1.02
2018-08-12T15:34:37.296Z,1.27
2018-08-12T15:37:21.762Z,1.15
2018-08-12T15:40:22.516Z,1.50
2018-08-12T15:42:53.302Z,1.17
2018-08-12T15:46:04.668Z,1.17
2018-08-12T15:48:35.054Z,1.45
2018-08-12T15:51:23.470Z,1.65
2018-08-12T15:54:03.675Z,1.15
2018-08-12T15:56:37.073Z,1.42
2018-08-12T15:59:26.396Z,1.40
2018-08-12T16:01:56.243Z,1.80
2018-08-12T16:31:51.539Z,1.32
2018-08-12T16:34:20.662Z,1.50
2018-08-12T16:36:50.474Z,1.70
2018-08-12T16:39:19.116Z,1.22
2018-08-12T16:41:47.838Z,1.60
2018-08-12T16:47:54.557Z,1.55
2018-08-12T16:50:26.097Z,1.40
2018-08-12T16:53:09.975Z,1.40
2018-08-12T17:12:59.254Z,1.20
2018-08-12T17:15:28.221Z,1.72
2018-08-12T17:17:57.542Z,1.52
2018-08-12T17:20:27.103Z,1.37
2018-08-12T17:23:27.379Z,1.35
2018-08-12T17:25:57.959Z,2.10
2018-08-12T17:28:35.115Z,1.65
2018-08-12T17:31:06.263Z,1.35
2018-08-12T17:33:35.585Z,1.40
2018-08-12T17:36:07.729Z,2.08
2018-08-12T17:38:38.347Z,1.65
2018-08-12T17:41:09.163Z,1.42
2018-08-12T17:43:39.169Z,1.70
2018-08-12T17:46:11.062Z,1.72
2018-08-12T17:48:41.598Z,1.70
2018-08-12T17:51:12.234Z,1.70
2018-08-12T17:53:55.498Z,1.40
2018-08-12T17:56:25.138Z,1.57
2018-08-12T17:58:56.994Z,1.70
2018-08-12T18:01:27.563Z,1.95
2018-08-12T18:03:56.242Z,1.87
2018-08-12T18:06:25.154Z,1.47
2018-08-12T18:08:53.913Z,1.45
2018-08-12T18:11:23.784Z,1.65
2018-08-12T18:13:52.540Z,2.25
2018-08-12T18:16:21.866Z,1.67
2018-08-12T18:18:51.500Z,1.92
2018-08-12T18:21:21.081Z,1.65
2018-08-12T18:23:51.128Z,1.70
2018-08-12T18:26:20.459Z,1.30
2018-08-12T18:28:51.446Z,2.08
2018-08-12T18:31:20.744Z,2.10
2018-08-12T18:33:53.037Z,1.67
2018-08-12T18:36:22.389Z,1.80
2018-08-12T18:38:53.979Z,1.45
2018-08-12T18:41:32.788Z,1.80
2018-08-12T18:44:03.797Z,1.67
2018-08-12T18:46:35.364Z,1.90
2018-08-12T18:49:04.911Z,2.17
2018-08-12T18:51:34.200Z,2.25
2018-08-12T18:54:03.854Z,2.20
2018-08-12T18:56:35.365Z,2.15
2018-08-12T18:59:04.565Z,2.37
2018-08-12T19:01:34.268Z,2.10
2018-08-12T19:04:04.187Z,2.37
2018-08-12T19:06:34.743Z,2.17
2018-08-12T19:09:04.737Z,2.50
2018-08-12T19:11:36.145Z,2.20
2018-08-12T19:14:06.205Z,1.83
2018-08-12T19:16:35.423Z,2.27
2018-08-12T19:19:05.323Z,2.77
2018-08-12T19:21:34.765Z,2.05
2018-08-12T19:24:05.208Z,2.05
2018-08-12T19:26:38.190Z,2.27
2018-08-12T19:29:09.468Z,2.57
2018-08-12T19:31:38.949Z,2.30
2018-08-12T19:34:08.350Z,2.70
2018-08-12T19:36:37.086Z,2.77
2018-08-12T19:39:09.457Z,2.83
2018-08-12T19:41:38.353Z,2.97
2018-08-12T19:44:07.444Z,2.50
2018-08-12T19:46:36.940Z,2.92
2018-08-12T19:49:05.845Z,3.10
2018-08-12T19:51:34.369Z,3.00
2018-08-12T19:54:02.993Z,2.57
2018-08-12T19:56:32.167Z,2.75
2018-08-12T19:59:00.651Z,2.90
2018-08-12T20:01:29.603Z,2.77
2018-08-12T20:03:58.187Z,2.87
2018-08-12T20:06:26.990Z,3.90
2018-08-12T20:08:56.158Z,4.53
2018-08-12T20:11:25.290Z,4.67
2018-08-12T20:13:53.826Z,5.07
2018-08-12T20:16:22.835Z,4.97
2018-08-12T20:18:51.718Z,5.00
2018-08-12T20:21:21.193Z,4.77
2018-08-12T20:23:50.579Z,4.83
2018-08-12T20:26:19.168Z,4.75
2018-08-12T20:28:47.636Z,4.73
2018-08-12T20:31:21.453Z,4.20
2018-08-12T20:33:50.343Z,5.20
2018-08-12T20:36:18.915Z,5.30
2018-08-12T20:38:47.545Z,6.70
2018-08-12T20:41:16.192Z,5.63
2018-08-12T20:43:44.866Z,4.77
2018-08-12T20:46:13.958Z,5.10
2018-08-12T20:48:42.775Z,5.07
2018-08-12T20:51:11.374Z,4.87
2018-08-12T20:53:40.135Z,4.03
2018-08-12T20:56:08.932Z,4.00
2018-08-12T20:58:38.943Z,4.60
2018-08-12T21:01:08.741Z,4.73
2018-08-12T21:03:37.257Z,5.00
2018-08-12T21:06:05.944Z,4.70
2018-08-12T21:08:34.490Z,4.67
2018-08-12T21:11:03.198Z,4.60
2018-08-12T21:13:31.776Z,4.83
2018-08-12T21:16:00.360Z,4.90
2018-08-12T21:18:29.814Z,4.57
2018-08-12T21:20:58.638Z,4.60
2018-08-12T21:23:28.457Z,4.07
2018-08-12T21:25:57.192Z,4.70
2018-08-12T21:28:26.353Z,4.90
2018-08-12T21:30:55.293Z,4.63
2018-08-12T21:33:23.845Z,5.10
2018-08-12T21:35:52.455Z,4.53
2018-08-12T21:38:21.385Z,5.13
2018-08-12T21:40:51.248Z,5.07
2018-08-12T21:43:19.974Z,5.20
2018-08-12T21:45:48.655Z,5.57
2018-08-12T21:48:17.469Z,5.17
2018-08-12T21:50:47.056Z,4.97
2018-08-12T21:53:15.697Z,5.40
2018-08-12T21:55:44.205Z,5.47
2018-08-12T21:58:12.838Z,5.60
2018-08-12T22:00:41.504Z,5.47
2018-08-12T22:03:10.176Z,5.83
2018-08-12T22:05:38.888Z,5.33
2018-08-12T22:08:09.043Z,5.30
2018-08-12T22:10:39.783Z,6.13
2018-08-12T22:13:09.188Z,5.03
2018-08-12T22:15:37.823Z,5.67
2018-08-12T22:18:07.670Z,5.67
2018-08-12T22:20:36.265Z,5.67
2018-08-12T22:23:04.875Z,5.70
2018-08-12T22:25:33.545Z,5.60
2018-08-12T22:28:02.341Z,5.57
2018-08-12T22:30:31.652Z,5.60
2018-08-12T22:33:00.512Z,6.27
2018-08-12T22:35:29.131Z,5.93
2018-08-12T22:37:58.376Z,5.90
2018-08-12T22:40:27.014Z,6.07
2018-08-12T22:42:55.737Z,5.93
2018-08-12T22:45:24.396Z,5.40
2018-08-12T22:47:53.045Z,5.63
2018-08-12T22:50:21.716Z,5.20
2018-08-12T22:52:51.178Z,6.00
2018-08-12T22:55:19.849Z,5.60
2018-08-12T22:57:48.570Z,5.57
2018-08-12T23:00:19.092Z,13.10
2018-08-12T23:02:48.018Z,7.60
2018-08-12T23:05:16.648Z,7.20
2018-08-12T23:07:45.318Z,6.80
2018-08-12T23:10:13.941Z,10.23
2018-08-12T23:12:42.577Z,34.73
2018-08-12T23:15:22.435Z,13.43
2018-08-12T23:17:51.100Z,7.73
2018-08-12T23:20:19.762Z,7.33
2018-08-12T23:22:48.322Z,6.67
2018-08-12T23:25:18.990Z,6.37
2018-08-12T23:27:47.593Z,6.47
2018-08-12T23:30:16.252Z,7.17
2018-08-12T23:32:45.048Z,5.93
2018-08-12T23:35:14.301Z,5.67
2018-08-12T23:37:43.111Z,5.60
2018-08-12T23:40:11.765Z,5.10
2018-08-12T23:42:40.468Z,5.53
2018-08-12T23:45:09.145Z,5.07
2018-08-12T23:47:37.772Z,5.00
2018-08-12T23:50:06.388Z,4.57
2018-08-12T23:52:35.096Z,4.57
2018-08-12T23:55:03.756Z,4.00
2018-08-12T23:57:33.290Z,4.70
